createdAt,value
2022-12-27T00:02:20.996Z,5.50
2022-12-27T00:04:47.905Z,5.60
2022-12-27T00:07:14.633Z,5.50
2022-12-27T00:09:41.745Z,5.50
2022-12-27T00:12:09.117Z,5.50
2022-12-27T00:14:36.058Z,5.40
2022-12-27T00:17:02.851Z,5.40
2022-12-27T00:19:29.607Z,5.40
2022-12-27T00:21:57.625Z,5.30
2022-12-27T00:24:24.439Z,5.30
2022-12-27T00:26:51.236Z,5.20
2022-12-27T00:29:18.289Z,5.20
2022-12-27T00:31:45.117Z,5.10
2022-12-27T00:34:11.967Z,5.10
2022-12-27T00:36:38.663Z,5.10
2022-12-27T00:39:05.740Z,5.00
2022-12-27T00:41:32.739Z,5.00
2022-12-27T00:43:59.519Z,5.00
2022-12-27T00:46:26.383Z,4.90
2022-12-27T00:48:53.657Z,4.90
2022-12-27T00:51:25.846Z,4.90
2022-12-27T00:53:53.147Z,4.90
2022-12-27T00:56:21.674Z,4.80
2022-12-27T00:58:52.133Z,4.80
2022-12-27T01:01:20.177Z,4.80
2022-12-27T01:03:47.819Z,4.70
2022-12-27T01:06:15.839Z,4.70
2022-12-27T01:08:42.816Z,4.70
2022-12-27T01:11:10.485Z,4.70
2022-12-27T01:13:38.298Z,4.70
2022-12-27T01:16:09.746Z,4.70
2022-12-27T01:18:36.777Z,4.60
2022-12-27T01:21:07.772Z,4.70
2022-12-27T01:23:38.422Z,4.60
2022-12-27T01:26:06.808Z,4.60
2022-12-27T01:28:33.800Z,4.60
2022-12-27T01:31:13.453Z,4.60
2022-12-27T01:33:43.091Z,4.60
2022-12-27T01:36:14.662Z,4.50
2022-12-27T01:38:43.235Z,4.50
2022-12-27T01:41:36.309Z,4.50
2022-12-27T01:44:23.002Z,4.50
2022-12-27T01:46:49.852Z,4.50
2022-12-27T01:49:16.663Z,4.50
2022-12-27T01:51:43.917Z,4.50
2022-12-27T01:54:10.954Z,4.50
2022-12-27T01:56:38.064Z,4.50
2022-12-27T01:59:07.555Z,4.50
2022-12-27T02:01:36.280Z,4.50
2022-12-27T02:04:06.058Z,4.50
2022-12-27T02:06:33.170Z,4.50
2022-12-27T02:09:07.311Z,4.50
2022-12-27T02:11:55.020Z,4.50
2022-12-27T02:14:33.740Z,4.50
2022-12-27T02:17:02.745Z,4.50
2022-12-27T02:19:46.676Z,4.50
2022-12-27T02:22:23.033Z,4.40
2022-12-27T02:24:50.165Z,4.40
2022-12-27T02:27:20.460Z,4.40
2022-12-27T02:29:58.933Z,4.40
2022-12-27T02:32:31.128Z,4.40
2022-12-27T02:35:01.708Z,4.40
2022-12-27T02:37:30.721Z,4.40
2022-12-27T02:40:18.463Z,4.40
2022-12-27T02:43:04.483Z,4.40
2022-12-27T02:45:52.616Z,4.40
2022-12-27T02:48:38.472Z,4.40
2022-12-27T02:51:38.569Z,4.40
2022-12-27T02:54:08.395Z,4.30
2022-12-27T02:57:02.597Z,4.40
2022-12-27T02:59:35.976Z,4.40
2022-12-27T03:02:32.292Z,4.40
2022-12-27T03:05:14.580Z,4.30
2022-12-27T03:07:48.916Z,4.30
2022-12-27T03:10:45.219Z,4.30
2022-12-27T03:13:31.095Z,4.30
2022-12-27T03:16:07.586Z,4.30
2022-12-27T03:18:43.412Z,4.30
2022-12-27T03:21:29.735Z,4.30
2022-12-27T03:24:17.347Z,4.30
2022-12-27T03:26:47.076Z,4.30
2022-12-27T03:29:34.128Z,4.30
2022-12-27T03:32:21.284Z,4.30
2022-12-27T03:34:52.059Z,4.30
2022-12-27T03:37:41.202Z,4.30
2022-12-27T03:40:11.436Z,4.30
2022-12-27T03:43:00.099Z,4.30
2022-12-27T03:45:49.765Z,4.30
2022-12-27T03:48:19.854Z,4.30
2022-12-27T03:50:50.869Z,4.30
2022-12-27T03:53:26.271Z,4.30
2022-12-27T03:58:46.321Z,4.30
2022-12-27T04:01:28.876Z,4.30
2022-12-27T04:03:55.678Z,4.30
2022-12-27T04:06:22.414Z,4.30
2022-12-27T04:09:07.999Z,4.30
2022-12-27T04:11:53.362Z,4.30
2022-12-27T04:14:38.549Z,4.40
2022-12-27T04:17:24.185Z,4.40
2022-12-27T04:20:09.691Z,4.40
2022-12-27T04:22:55.246Z,4.40
2022-12-27T04:25:40.921Z,4.40
2022-12-27T04:28:26.401Z,4.40
2022-12-27T04:31:12.159Z,4.40
2022-12-27T04:33:57.611Z,4.40
2022-12-27T04:36:24.341Z,4.40
2022-12-27T04:38:51.168Z,4.40
2022-12-27T04:41:36.675Z,4.50
2022-12-27T04:44:22.042Z,4.50
2022-12-27T04:47:07.572Z,4.50
2022-12-27T04:49:52.897Z,4.50
2022-12-27T04:52:39.976Z,4.50
2022-12-27T04:55:23.503Z,4.60
2022-12-27T04:57:50.767Z,4.70
2022-12-27T05:00:36.814Z,4.80
2022-12-27T05:03:05.081Z,4.80
2022-12-27T05:05:32.051Z,4.90
2022-12-27T05:08:18.064Z,4.90
2022-12-27T05:11:03.766Z,5.00
2022-12-27T05:13:49.295Z,5.00
2022-12-27T05:16:16.099Z,5.00
2022-12-27T05:18:43.166Z,5.00
2022-12-27T05:21:10.012Z,5.00
2022-12-27T05:23:57.792Z,5.10
2022-12-27T05:26:29.516Z,5.00
2022-12-27T05:28:57.232Z,5.00
2022-12-27T05:31:24.793Z,5.00
2022-12-27T05:33:52.296Z,4.90
2022-12-27T05:36:19.611Z,4.90
2022-12-27T05:38:46.337Z,4.80
2022-12-27T05:41:13.041Z,4.80
2022-12-27T05:43:39.965Z,4.80
2022-12-27T05:46:08.209Z,4.70
2022-12-27T05:48:35.330Z,4.80
2022-12-27T05:51:06.277Z,4.80
2022-12-27T05:53:32.930Z,4.80
2022-12-27T05:55:59.878Z,4.80
2022-12-27T05:58:26.961Z,4.80
2022-12-27T06:00:53.678Z,4.90
2022-12-27T06:03:20.717Z,4.90
2022-12-27T06:05:47.653Z,5.00
2022-12-27T06:08:14.274Z,5.10
2022-12-27T06:10:41.388Z,5.10
2022-12-27T06:13:08.250Z,5.10
2022-12-27T06:15:34.943Z,5.10
2022-12-27T06:18:03.629Z,5.10
2022-12-27T06:20:30.421Z,5.10
2022-12-27T06:22:58.890Z,5.10
2022-12-27T06:25:25.629Z,5.10
2022-12-27T06:27:52.568Z,5.10
2022-12-27T06:30:19.407Z,5.00
2022-12-27T06:32:46.123Z,5.00
2022-12-27T06:35:12.815Z,5.00
2022-12-27T06:37:39.714Z,5.00
2022-12-27T06:40:06.670Z,5.00
2022-12-27T06:42:33.431Z,5.00
2022-12-27T06:45:00.227Z,5.00
2022-12-27T06:47:26.913Z,5.00
2022-12-27T06:49:53.702Z,4.90
2022-12-27T06:52:21.982Z,5.00
2022-12-27T06:54:48.853Z,4.90
2022-12-27T06:57:15.508Z,4.90
2022-12-27T06:59:42.256Z,4.90
2022-12-27T07:02:09.964Z,4.90
2022-12-27T07:04:36.783Z,4.90
2022-12-27T07:07:03.527Z,4.80
2022-12-27T07:09:30.583Z,4.90
2022-12-27T07:11:57.187Z,5.00
2022-12-27T07:14:23.910Z,5.00
2022-12-27T07:16:50.722Z,5.00
2022-12-27T07:19:17.450Z,4.90
2022-12-27T07:21:44.202Z,4.90
2022-12-27T07:24:11.023Z,4.90
2022-12-27T07:26:37.738Z,4.90
2022-12-27T07:29:04.705Z,4.90
2022-12-27T07:31:32.629Z,4.90
2022-12-27T07:34:00.631Z,4.90
2022-12-27T07:36:35.693Z,4.90
2022-12-27T07:39:02.768Z,4.90
2022-12-27T07:41:33.717Z,4.90
2022-12-27T07:44:01.955Z,4.90
2022-12-27T07:46:28.822Z,5.00
2022-12-27T07:48:56.458Z,5.00
2022-12-27T07:51:23.812Z,4.90
2022-12-27T07:53:50.979Z,4.90
2022-12-27T07:56:26.153Z,4.90
2022-12-27T07:58:54.670Z,4.80
2022-12-27T08:01:22.878Z,4.80
2022-12-27T08:03:50.053Z,4.80
2022-12-27T08:06:24.309Z,4.80
2022-12-27T08:08:51.964Z,4.80
2022-12-27T08:11:18.775Z,4.80
2022-12-27T08:13:45.663Z,4.80
2022-12-27T08:16:20.557Z,4.90
2022-12-27T08:18:47.489Z,4.80
2022-12-27T08:21:15.524Z,4.80
2022-12-27T08:23:42.639Z,4.80
2022-12-27T08:26:12.670Z,4.90
2022-12-27T08:28:39.729Z,4.90
2022-12-27T08:31:08.140Z,4.90
2022-12-27T08:33:35.565Z,4.90
2022-12-27T08:36:28.679Z,4.90
2022-12-27T08:38:54.695Z,4.90
2022-12-27T08:41:21.855Z,4.90
2022-12-27T08:43:48.437Z,5.00
2022-12-27T08:46:15.284Z,5.00
2022-12-27T08:48:43.408Z,5.00
2022-12-27T08:51:13.166Z,5.10
2022-12-27T08:53:41.391Z,5.10
2022-12-27T08:56:08.206Z,5.10
2022-12-27T08:58:35.040Z,5.10
2022-12-27T09:01:08.495Z,5.20
2022-12-27T09:03:37.895Z,5.20
2022-12-27T09:06:11.612Z,5.20
2022-12-27T09:08:38.991Z,5.30
2022-12-27T09:11:10.274Z,5.30
2022-12-27T09:13:37.136Z,5.40
2022-12-27T09:16:14.625Z,5.40
2022-12-27T09:18:42.293Z,5.50
2022-12-27T09:21:10.580Z,5.60
2022-12-27T09:23:37.896Z,5.60
2022-12-27T09:26:07.619Z,5.70
2022-12-27T09:28:34.923Z,5.70
2022-12-27T09:31:04.548Z,5.80
2022-12-27T09:33:31.688Z,5.80
2022-12-27T09:36:08.875Z,5.80
2022-12-27T09:38:36.056Z,5.90
2022-12-27T09:41:07.271Z,5.90
2022-12-27T09:43:48.517Z,6.00
2022-12-27T09:46:19.657Z,6.00
2022-12-27T09:48:49.150Z,6.00
2022-12-27T09:51:36.791Z,6.10
2022-12-27T09:54:14.722Z,6.10
2022-12-27T09:57:09.982Z,6.10
2022-12-27T09:59:42.237Z,6.10
2022-12-27T10:02:22.163Z,6.10
2022-12-27T10:07:43.106Z,6.20
2022-12-27T10:10:18.669Z,6.30
2022-12-27T10:12:54.175Z,6.30
2022-12-27T10:15:25.211Z,6.40
2022-12-27T10:17:59.736Z,6.40
2022-12-27T10:20:45.209Z,6.40
2022-12-27T10:23:17.034Z,6.50
2022-12-27T10:25:45.809Z,6.60
2022-12-27T10:28:17.363Z,6.60
2022-12-27T10:30:44.396Z,6.60
2022-12-27T10:33:18.710Z,6.70
2022-12-27T10:35:45.597Z,6.70
2022-12-27T10:38:12.502Z,6.70
2022-12-27T10:40:51.029Z,6.80
2022-12-27T10:43:24.918Z,6.80
2022-12-27T10:45:51.689Z,6.80
2022-12-27T10:48:22.888Z,6.80
2022-12-27T10:50:57.593Z,6.80
2022-12-27T10:53:30.228Z,6.80
2022-12-27T10:56:07.653Z,6.80
2022-12-27T10:58:34.772Z,6.80
2022-12-27T11:01:04.361Z,6.80
2022-12-27T11:03:32.191Z,6.80
2022-12-27T11:06:04.176Z,6.80
2022-12-27T11:08:30.960Z,6.80
2022-12-27T11:11:13.119Z,6.90
2022-12-27T11:13:39.954Z,6.90
2022-12-27T11:16:12.054Z,6.90
2022-12-27T11:18:42.136Z,6.90
2022-12-27T11:21:21.236Z,7.00
2022-12-27T11:23:54.591Z,6.90
2022-12-27T11:26:23.426Z,6.90
2022-12-27T11:28:54.389Z,7.00
2022-12-27T11:31:28.987Z,7.00
2022-12-27T11:34:01.701Z,7.00
2022-12-27T11:36:30.901Z,7.00
2022-12-27T11:38:58.283Z,7.00
2022-12-27T11:41:40.797Z,7.10
2022-12-27T11:44:16.729Z,7.10
2022-12-27T11:46:47.874Z,7.10
2022-12-27T11:49:22.397Z,7.20
2022-12-27T11:51:54.784Z,7.30
2022-12-27T11:54:40.493Z,7.30
2022-12-27T11:57:14.100Z,7.40
2022-12-27T11:59:49.982Z,7.40
2022-12-27T12:02:21.273Z,7.40
2022-12-27T12:04:48.048Z,7.50
2022-12-27T12:07:29.049Z,7.50
2022-12-27T12:09:55.722Z,7.50
2022-12-27T12:12:37.769Z,7.50
2022-12-27T12:15:13.412Z,7.50
2022-12-27T12:17:50.883Z,7.50
2022-12-27T12:20:36.616Z,7.50
2022-12-27T12:23:09.586Z,7.50
2022-12-27T12:25:43.038Z,7.50
2022-12-27T12:28:38.342Z,7.50
2022-12-27T12:31:08.769Z,7.60
2022-12-27T12:33:59.057Z,7.50
2022-12-27T12:36:49.152Z,7.50
2022-12-27T12:39:37.846Z,7.60
2022-12-27T12:42:18.202Z,7.50
2022-12-27T12:44:54.409Z,7.60
2022-12-27T12:47:27.183Z,7.60
2022-12-27T12:50:11.346Z,7.50
2022-12-27T12:53:16.022Z,7.50
2022-12-27T12:55:45.596Z,7.40
2022-12-27T12:58:27.559Z,7.40
2022-12-27T13:00:54.436Z,7.40
2022-12-27T13:03:40.199Z,7.30
2022-12-27T13:06:10.059Z,7.30
2022-12-27T13:08:47.238Z,7.30
2022-12-27T13:11:20.587Z,7.30
2022-12-27T13:13:47.232Z,7.40
2022-12-27T13:16:32.770Z,7.40
2022-12-27T13:19:18.723Z,7.40
2022-12-27T13:22:00.883Z,7.40
2022-12-27T13:24:46.712Z,7.40
2022-12-27T13:27:16.349Z,7.50
2022-12-27T13:29:52.962Z,7.50
2022-12-27T13:32:27.516Z,7.50
2022-12-27T13:35:19.563Z,7.60
2022-12-27T13:37:53.004Z,7.50
2022-12-27T13:40:45.732Z,7.50
2022-12-27T13:43:15.704Z,7.60
2022-12-27T13:45:58.281Z,7.50
2022-12-27T13:48:44.243Z,7.50
2022-12-27T13:51:16.618Z,7.50
2022-12-27T13:54:03.377Z,7.50
2022-12-27T13:59:25.381Z,7.40
2022-12-27T14:02:10.989Z,7.40
2022-12-27T14:04:59.042Z,7.30
2022-12-27T14:07:26.247Z,7.30
2022-12-27T14:09:59.135Z,7.40
2022-12-27T14:12:25.794Z,7.30
2022-12-27T14:14:54.926Z,7.40
2022-12-27T14:17:24.695Z,7.40
2022-12-27T14:20:01.872Z,7.40
2022-12-27T14:22:40.857Z,7.40
2022-12-27T14:25:16.720Z,7.40
2022-12-27T14:28:01.828Z,7.40
2022-12-27T14:30:37.805Z,7.40
2022-12-27T14:33:21.071Z,7.40
2022-12-27T14:35:47.853Z,7.40
2022-12-27T14:38:31.505Z,7.40
2022-12-27T14:41:01.359Z,7.40
2022-12-27T14:43:40.491Z,7.40
2022-12-27T14:46:26.055Z,7.40
2022-12-27T14:49:02.222Z,7.40
2022-12-27T14:52:04.478Z,7.40
2022-12-27T14:54:41.788Z,7.40
2022-12-27T14:57:33.460Z,7.30
2022-12-27T15:00:04.242Z,7.30
2022-12-27T15:02:48.792Z,7.20
2022-12-27T15:05:25.580Z,7.10
2022-12-27T15:08:07.734Z,7.10
2022-12-27T15:10:37.444Z,7.00
2022-12-27T15:13:11.777Z,7.00
2022-12-27T15:15:56.908Z,6.90
2022-12-27T15:18:30.075Z,6.90
2022-12-27T15:21:17.201Z,6.80
2022-12-27T15:23:49.545Z,6.80
2022-12-27T15:26:36.610Z,6.70
2022-12-27T15:29:18.027Z,6.70
2022-12-27T15:31:53.959Z,6.60
2022-12-27T15:34:33.100Z,6.60
2022-12-27T15:36:59.967Z,6.60
2022-12-27T15:39:46.830Z,6.60
2022-12-27T15:42:49.127Z,6.60
2022-12-27T15:45:24.945Z,6.50
2022-12-27T15:48:00.812Z,6.60
2022-12-27T15:50:30.054Z,6.60
2022-12-27T15:52:57.391Z,6.60
2022-12-27T15:55:54.848Z,6.60
2022-12-27T15:58:25.540Z,6.60
2022-12-27T16:01:11.211Z,6.60
2022-12-27T16:03:39.158Z,6.60
2022-12-27T16:06:07.707Z,6.60
2022-12-27T16:08:35.665Z,6.60
2022-12-27T16:11:08.082Z,6.50
2022-12-27T16:13:42.911Z,6.50
2022-12-27T16:16:35.379Z,6.50
2022-12-27T16:19:21.305Z,6.50
2022-12-27T16:21:51.933Z,6.50
2022-12-27T16:24:20.662Z,6.50
2022-12-27T16:26:51.156Z,6.50
2022-12-27T16:29:17.966Z,6.50
2022-12-27T16:31:47.664Z,6.60
2022-12-27T16:34:23.303Z,6.60
2022-12-27T16:36:52.278Z,6.60
2022-12-27T16:39:28.261Z,6.70
2022-12-27T16:41:55.525Z,6.70
2022-12-27T16:44:37.995Z,6.80
2022-12-27T16:47:25.070Z,6.80
2022-12-27T16:50:12.119Z,6.80
2022-12-27T16:52:57.970Z,6.90
2022-12-27T16:55:34.099Z,6.90
2022-12-27T16:58:19.645Z,6.90
2022-12-27T17:00:50.760Z,6.90
2022-12-27T17:03:21.229Z,6.90
2022-12-27T17:06:21.504Z,7.00
2022-12-27T17:08:35.767Z,7.00
2022-12-27T17:11:04.521Z,7.00
2022-12-27T17:13:31.296Z,7.00
2022-12-27T17:16:00.977Z,7.10
2022-12-27T17:18:29.755Z,7.10
2022-12-27T17:21:02.191Z,7.10
2022-12-27T17:23:29.098Z,7.10
2022-12-27T17:26:06.246Z,7.10
2022-12-27T17:28:38.661Z,7.10
2022-12-27T17:31:34.847Z,7.20
2022-12-27T17:34:08.539Z,7.20
2022-12-27T17:36:40.290Z,7.20
2022-12-27T17:39:16.283Z,7.10
2022-12-27T17:42:09.542Z,7.10
2022-12-27T17:44:39.348Z,7.10
2022-12-27T17:47:15.619Z,7.10
2022-12-27T17:49:43.160Z,7.10
2022-12-27T17:52:33.516Z,7.10
2022-12-27T17:55:31.588Z,7.10
2022-12-27T17:58:00.514Z,7.00
2022-12-27T18:00:29.617Z,7.00
2022-12-27T18:02:57.852Z,7.00
2022-12-27T18:05:27.653Z,7.00
2022-12-27T18:08:02.290Z,6.90
2022-12-27T18:10:34.376Z,6.90
2022-12-27T18:13:02.436Z,6.90
2022-12-27T18:15:30.010Z,6.80
2022-12-27T18:18:05.085Z,6.80
2022-12-27T18:20:36.390Z,6.80
2022-12-27T18:23:03.163Z,6.70
2022-12-27T18:25:32.911Z,6.70
2022-12-27T18:28:04.837Z,6.70
2022-12-27T18:30:41.313Z,6.70
2022-12-27T18:33:10.669Z,6.70
2022-12-27T18:35:37.365Z,6.60
2022-12-27T18:38:06.555Z,6.60
2022-12-27T18:40:34.110Z,6.70
2022-12-27T18:43:00.857Z,6.60
2022-12-27T18:45:29.553Z,6.60
2022-12-27T18:47:57.843Z,6.60
2022-12-27T18:50:25.832Z,6.60
2022-12-27T18:53:03.299Z,6.60
2022-12-27T18:55:31.489Z,6.60
2022-12-27T18:58:20.130Z,6.50
2022-12-27T19:00:52.311Z,6.50
2022-12-27T19:03:20.564Z,6.50
2022-12-27T19:06:01.743Z,6.50
2022-12-27T19:08:32.497Z,6.50
2022-12-27T19:10:59.283Z,6.50
2022-12-27T19:13:28.137Z,6.40
2022-12-27T19:15:55.613Z,6.40
2022-12-27T19:18:25.185Z,6.40
2022-12-27T19:20:54.316Z,6.30
2022-12-27T19:23:35.036Z,6.30
2022-12-27T19:26:23.996Z,6.30
2022-12-27T19:28:59.551Z,6.30
2022-12-27T19:31:26.367Z,6.20
2022-12-27T19:33:55.768Z,6.20
2022-12-27T19:36:33.785Z,6.10
2022-12-27T19:39:01.115Z,6.10
2022-12-27T19:41:27.890Z,6.10
2022-12-27T19:43:55.556Z,6.00
2022-12-27T19:46:30.547Z,6.00
2022-12-27T19:51:44.972Z,6.00
2022-12-27T19:54:16.898Z,5.90
2022-12-27T19:56:43.909Z,5.90
2022-12-27T19:59:18.060Z,5.90
2022-12-27T20:01:45.814Z,5.90
2022-12-27T20:04:13.244Z,5.80
2022-12-27T20:06:41.020Z,5.80
2022-12-27T20:09:12.579Z,5.80
2022-12-27T20:11:39.618Z,5.80
2022-12-27T20:14:06.319Z,5.70
2022-12-27T20:16:33.098Z,5.80
2022-12-27T20:18:59.782Z,5.70
2022-12-27T20:21:26.511Z,5.70
2022-12-27T20:23:53.189Z,5.70
2022-12-27T20:26:21.483Z,5.70
2022-12-27T20:28:48.688Z,5.70
2022-12-27T20:31:16.737Z,5.80
2022-12-27T20:33:43.521Z,5.80
2022-12-27T20:36:10.396Z,5.80
2022-12-27T20:38:40.239Z,5.80
2022-12-27T20:41:07.852Z,5.80
2022-12-27T20:43:34.949Z,5.80
2022-12-27T20:46:08.963Z,5.80
2022-12-27T20:48:39.190Z,5.80
2022-12-27T20:51:10.210Z,5.80
2022-12-27T20:53:36.897Z,5.80
2022-12-27T20:56:04.103Z,5.80
2022-12-27T20:58:31.507Z,5.80
2022-12-27T21:00:58.437Z,5.80
2022-12-27T21:03:25.802Z,5.80
2022-12-27T21:05:52.408Z,5.80
2022-12-27T21:08:19.204Z,5.70
2022-12-27T21:10:45.890Z,5.80
2022-12-27T21:13:12.687Z,5.70
2022-12-27T21:15:42.534Z,5.70
2022-12-27T21:18:09.409Z,5.70
2022-12-27T21:20:36.115Z,5.70
2022-12-27T21:23:02.767Z,5.60
2022-12-27T21:25:29.474Z,5.70
2022-12-27T21:27:56.092Z,5.60
2022-12-27T21:30:22.848Z,5.60
2022-12-27T21:32:49.601Z,5.60
2022-12-27T21:35:16.266Z,5.60
2022-12-27T21:37:42.886Z,5.60
2022-12-27T21:40:10.140Z,5.60
2022-12-27T21:42:36.777Z,5.60
2022-12-27T21:45:03.507Z,5.60
2022-12-27T21:47:31.607Z,5.60
2022-12-27T21:49:59.456Z,5.60
2022-12-27T21:52:26.167Z,5.60
2022-12-27T21:54:52.934Z,5.60
2022-12-27T21:57:19.527Z,5.50
2022-12-27T21:59:46.143Z,5.60
2022-12-27T22:02:13.042Z,5.60
2022-12-27T22:04:39.777Z,5.50
2022-12-27T22:07:06.523Z,5.60
2022-12-27T22:09:33.231Z,5.60
2022-12-27T22:12:00.008Z,5.60
2022-12-27T22:14:28.444Z,5.60
2022-12-27T22:16:59.961Z,5.60
2022-12-27T22:19:26.561Z,5.60
2022-12-27T22:21:53.320Z,5.60
2022-12-27T22:24:20.327Z,5.70
2022-12-27T22:26:48.433Z,5.70
2022-12-27T22:29:15.255Z,5.70
2022-12-27T22:31:42.741Z,5.70
2022-12-27T22:34:09.456Z,5.70
2022-12-27T22:36:36.501Z,5.70
2022-12-27T22:39:03.438Z,5.70
2022-12-27T22:41:31.437Z,5.70
2022-12-27T22:43:59.394Z,5.80
2022-12-27T22:46:26.787Z,5.80
2022-12-27T22:48:54.988Z,5.80
2022-12-27T22:51:23.085Z,5.80
2022-12-27T22:53:50.150Z,5.80
2022-12-27T22:56:21.321Z,5.80
2022-12-27T22:58:48.035Z,5.80
2022-12-27T23:01:16.141Z,5.80
2022-12-27T23:03:43.200Z,5.80
2022-12-27T23:06:12.025Z,5.80
2022-12-27T23:08:39.250Z,5.70
2022-12-27T23:11:07.195Z,5.80
2022-12-27T23:13:34.395Z,5.80
2022-12-27T23:16:02.064Z,5.70
2022-12-27T23:18:29.755Z,5.80
2022-12-27T23:21:20.967Z,5.80
2022-12-27T23:23:43.795Z,5.80
2022-12-27T23:26:21.294Z,5.80
2022-12-27T23:28:48.430Z,5.80
2022-12-27T23:31:15.534Z,5.80
2022-12-27T23:33:43.252Z,5.80
2022-12-27T23:36:10.321Z,5.80
2022-12-27T23:38:37.046Z,5.80
2022-12-27T23:41:04.820Z,5.90
2022-12-27T23:46:29.680Z,5.90
2022-12-27T23:48:57.356Z,5.90
2022-12-27T23:51:24.602Z,5.90
2022-12-27T23:53:51.638Z,5.90
2022-12-27T23:56:25.852Z,6.00
2022-12-27T23:58:53.490Z,6.00
